createdAt,value
2018-06-03T00:00:13.626Z,2.97
2018-06-03T00:02:39.811Z,2.90
2018-06-03T00:05:06.034Z,2.83
2018-06-03T00:07:32.234Z,2.83
2018-06-03T00:09:58.444Z,2.60
2018-06-03T00:12:25.366Z,4.07
2018-06-03T00:14:51.554Z,2.70
2018-06-03T00:17:17.762Z,2.73
2018-06-03T00:19:43.988Z,3.10
2018-06-03T00:22:10.190Z,3.53
2018-06-03T00:24:36.398Z,2.70
2018-06-03T00:27:02.612Z,3.87
2018-06-03T00:29:28.846Z,2.60
2018-06-03T00:31:55.049Z,2.63
2018-06-03T00:34:21.265Z,2.40
2018-06-03T00:36:47.464Z,2.97
2018-06-03T00:39:13.664Z,2.80
2018-06-03T00:41:39.890Z,3.87
2018-06-03T00:44:06.125Z,2.60
2018-06-03T00:46:32.322Z,2.60
2018-06-03T00:48:58.534Z,2.50
2018-06-03T00:51:24.731Z,2.40
2018-06-03T00:53:50.962Z,2.60
2018-06-03T00:56:17.196Z,3.17
2018-06-03T00:58:43.404Z,2.93
2018-06-03T01:01:09.624Z,3.17
2018-06-03T01:03:35.811Z,4.53
2018-06-03T01:06:02.027Z,3.17
2018-06-03T01:08:28.224Z,4.03
2018-06-03T01:10:54.431Z,2.97
2018-06-03T01:13:22.548Z,2.83
2018-06-03T01:15:48.735Z,3.27
2018-06-03T01:18:14.937Z,2.50
2018-06-03T01:20:41.120Z,2.57
2018-06-03T01:23:07.343Z,2.87
2018-06-03T01:25:34.281Z,2.60
2018-06-03T01:28:01.212Z,3.37
2018-06-03T01:30:27.412Z,3.13
2018-06-03T01:32:53.614Z,2.20
2018-06-03T01:35:19.795Z,2.50
2018-06-03T01:37:45.991Z,2.67
2018-06-03T01:40:12.948Z,2.63
2018-06-03T01:42:39.171Z,2.23
2018-06-03T01:45:05.382Z,3.20
2018-06-03T01:47:31.585Z,2.77
2018-06-03T01:49:58.527Z,2.67
2018-06-03T01:52:24.739Z,2.77
2018-06-03T01:54:51.713Z,3.00
2018-06-03T01:57:17.920Z,2.80
2018-06-03T01:59:44.176Z,2.37
2018-06-03T02:02:11.110Z,2.70
2018-06-03T02:04:37.345Z,2.60
2018-06-03T02:07:03.607Z,2.30
2018-06-03T02:09:29.815Z,2.50
2018-06-03T02:11:56.021Z,2.50
2018-06-03T02:14:22.971Z,2.57
2018-06-03T02:16:49.165Z,3.33
2018-06-03T02:19:15.378Z,2.60
2018-06-03T02:21:41.623Z,2.23
2018-06-03T02:24:07.829Z,2.43
2018-06-03T02:26:34.021Z,3.00
2018-06-03T02:29:00.213Z,2.30
2018-06-03T02:31:26.410Z,2.40
2018-06-03T02:33:53.327Z,2.60
2018-06-03T02:36:19.530Z,3.37
2018-06-03T02:38:45.767Z,2.50
2018-06-03T02:41:11.987Z,2.67
2018-06-03T02:43:38.221Z,2.47
2018-06-03T02:46:04.428Z,2.37
2018-06-03T02:48:31.373Z,2.47
2018-06-03T02:50:58.333Z,2.30
2018-06-03T02:53:24.548Z,2.43
2018-06-03T02:55:51.737Z,2.60
2018-06-03T02:58:17.949Z,2.17
2018-06-03T03:00:44.149Z,2.70
2018-06-03T03:03:11.099Z,2.50
2018-06-03T03:05:37.285Z,2.43
2018-06-03T03:08:03.460Z,2.53
2018-06-03T03:10:29.698Z,2.33
2018-06-03T03:12:55.901Z,2.00
2018-06-03T03:15:22.089Z,2.23
2018-06-03T03:17:48.291Z,2.20
2018-06-03T03:20:14.548Z,2.67
2018-06-03T03:22:41.472Z,2.27
2018-06-03T03:25:07.694Z,2.60
2018-06-03T03:27:33.874Z,2.20
2018-06-03T03:30:00.082Z,2.90
2018-06-03T03:32:26.278Z,2.73
2018-06-03T03:34:53.252Z,2.50
2018-06-03T03:37:19.438Z,2.33
2018-06-03T03:39:46.392Z,2.10
2018-06-03T03:42:13.339Z,2.40
2018-06-03T03:44:39.552Z,3.33
2018-06-03T03:47:05.779Z,2.20
2018-06-03T03:49:31.992Z,2.37
2018-06-03T03:51:58.180Z,2.50
2018-06-03T03:54:24.389Z,2.53
2018-06-03T03:56:50.571Z,2.73
2018-06-03T03:59:16.746Z,2.40
2018-06-03T04:01:42.944Z,2.17
2018-06-03T04:04:09.894Z,2.27
2018-06-03T04:06:36.854Z,2.73
2018-06-03T04:09:03.088Z,2.10
2018-06-03T04:11:29.338Z,2.60
2018-06-03T04:13:55.520Z,2.13
2018-06-03T04:16:21.715Z,2.87
2018-06-03T04:18:48.667Z,2.45
2018-06-03T04:21:15.600Z,1.90
2018-06-03T04:23:42.008Z,2.40
2018-06-03T04:26:08.946Z,2.27
2018-06-03T04:28:35.126Z,2.37
2018-06-03T04:31:02.073Z,2.20
2018-06-03T04:33:28.827Z,2.60
2018-06-03T04:35:55.755Z,2.00
2018-06-03T04:38:22.710Z,2.50
2018-06-03T04:40:49.640Z,3.33
2018-06-03T04:43:15.873Z,2.10
2018-06-03T04:45:42.071Z,2.10
2018-06-03T04:48:08.282Z,2.20
2018-06-03T04:50:35.223Z,2.63
2018-06-03T04:53:01.394Z,2.20
2018-06-03T04:55:27.594Z,2.43
2018-06-03T04:57:53.782Z,2.43
2018-06-03T05:00:19.998Z,2.50
2018-06-03T05:02:46.238Z,2.90
2018-06-03T05:05:12.455Z,2.10
2018-06-03T05:07:39.394Z,2.57
2018-06-03T05:10:06.316Z,2.60
2018-06-03T05:12:32.932Z,2.57
2018-06-03T05:14:59.110Z,2.50
2018-06-03T05:17:26.042Z,2.10
2018-06-03T05:19:52.253Z,2.43
2018-06-03T05:22:18.451Z,2.80
2018-06-03T05:24:44.626Z,2.53
2018-06-03T05:27:11.575Z,2.30
2018-06-03T05:29:37.790Z,2.60
2018-06-03T05:32:03.993Z,2.30
2018-06-03T05:34:30.209Z,2.53
2018-06-03T05:36:56.418Z,2.23
2018-06-03T05:39:23.345Z,2.60
2018-06-03T05:41:49.517Z,2.20
2018-06-03T05:44:16.453Z,3.00
2018-06-03T05:46:43.404Z,2.67
2018-06-03T05:49:10.339Z,2.50
2018-06-03T05:51:37.261Z,2.50
2018-06-03T05:54:03.443Z,2.20
2018-06-03T05:56:29.657Z,2.80
2018-06-03T05:58:55.863Z,2.00
2018-06-03T06:01:22.807Z,2.50
2018-06-03T06:03:48.993Z,2.40
2018-06-03T06:06:15.191Z,2.07
2018-06-03T06:08:41.389Z,2.07
2018-06-03T06:11:07.588Z,2.20
2018-06-03T06:13:33.773Z,2.30
2018-06-03T06:15:59.974Z,2.30
2018-06-03T06:18:26.919Z,2.50
2018-06-03T06:20:53.881Z,2.20
2018-06-03T06:23:20.077Z,2.30
2018-06-03T06:25:46.275Z,2.30
2018-06-03T06:28:12.461Z,3.33
2018-06-03T06:30:38.687Z,3.30
2018-06-03T06:33:04.894Z,2.20
2018-06-03T06:35:31.092Z,2.33
2018-06-03T06:37:57.289Z,2.30
2018-06-03T06:40:24.225Z,2.30
2018-06-03T06:42:50.416Z,3.37
2018-06-03T06:45:16.572Z,3.37
2018-06-03T06:47:42.766Z,3.47
2018-06-03T06:50:08.983Z,4.00
2018-06-03T06:52:35.879Z,3.93
2018-06-03T06:55:02.087Z,4.07
2018-06-03T06:57:28.317Z,4.03
2018-06-03T06:59:54.555Z,4.40
2018-06-03T07:02:20.765Z,3.83
2018-06-03T07:04:46.966Z,4.83
2018-06-03T07:07:13.924Z,4.30
2018-06-03T07:09:40.169Z,4.50
2018-06-03T07:12:07.443Z,4.03
2018-06-03T07:14:34.475Z,3.60
2018-06-03T07:17:00.698Z,4.50
2018-06-03T07:19:26.900Z,3.80
2018-06-03T07:21:53.848Z,4.13
2018-06-03T07:24:20.056Z,4.70
2018-06-03T07:26:46.250Z,4.30
2018-06-03T07:29:12.421Z,3.60
2018-06-03T07:31:38.592Z,4.70
2018-06-03T07:34:04.766Z,3.93
2018-06-03T07:36:30.959Z,3.97
2018-06-03T07:38:57.899Z,4.20
2018-06-03T07:41:24.081Z,3.63
2018-06-03T07:43:50.283Z,3.63
2018-06-03T07:46:16.512Z,3.63
2018-06-03T07:48:42.750Z,3.97
2018-06-03T07:51:09.730Z,4.30
2018-06-03T07:53:35.954Z,3.97
2018-06-03T07:56:02.143Z,3.80
2018-06-03T07:58:28.375Z,3.30
2018-06-03T08:00:54.598Z,3.77
2018-06-03T08:03:20.842Z,3.80
2018-06-03T08:05:47.082Z,3.80
2018-06-03T08:08:13.312Z,3.63
2018-06-03T08:10:39.554Z,3.90
2018-06-03T08:13:05.812Z,3.47
2018-06-03T08:15:31.959Z,3.23
2018-06-03T08:17:58.147Z,3.30
2018-06-03T08:20:24.332Z,4.83
2018-06-03T08:22:51.265Z,4.57
2018-06-03T08:25:17.444Z,3.80
2018-06-03T08:27:43.659Z,3.93
2018-06-03T08:30:09.864Z,3.60
2018-06-03T08:32:36.058Z,3.60
2018-06-03T08:35:02.238Z,3.73
2018-06-03T08:37:28.459Z,3.90
2018-06-03T08:39:54.662Z,3.80
2018-06-03T08:42:21.354Z,3.27
2018-06-03T08:44:48.289Z,3.70
2018-06-03T08:47:40.859Z,3.27
2018-06-03T08:50:07.331Z,3.03
2018-06-03T08:52:33.843Z,3.12
2018-06-03T08:55:00.326Z,2.75
2018-06-03T08:57:26.831Z,2.80
2018-06-03T08:59:53.292Z,2.20
2018-06-03T09:02:20.477Z,2.93
2018-06-03T09:04:46.961Z,2.50
2018-06-03T09:07:13.436Z,2.77
2018-06-03T09:09:39.910Z,2.37
2018-06-03T09:12:06.411Z,2.30
2018-06-03T09:14:32.902Z,2.85
2018-06-03T09:16:59.422Z,2.27
2018-06-03T09:19:25.874Z,2.60
2018-06-03T09:21:52.339Z,2.60
2018-06-03T09:24:18.854Z,2.42
2018-06-03T09:26:45.286Z,2.90
2018-06-03T09:29:11.820Z,2.80
2018-06-03T09:31:38.296Z,2.90
2018-06-03T09:34:04.801Z,2.70
2018-06-03T09:36:31.305Z,2.97
2018-06-03T09:38:58.298Z,3.17
2018-06-03T09:41:24.809Z,2.77
2018-06-03T09:43:51.255Z,2.70
2018-06-03T09:46:17.754Z,2.60
2018-06-03T09:48:44.203Z,2.80
2018-06-03T09:51:10.684Z,2.70
2018-06-03T09:53:37.193Z,3.10
2018-06-03T09:56:03.646Z,3.20
2018-06-03T09:58:30.131Z,2.75
2018-06-03T10:00:56.620Z,2.83
2018-06-03T10:03:23.068Z,3.40
2018-06-03T10:05:49.547Z,3.00
2018-06-03T10:08:16.068Z,2.70
2018-06-03T10:10:42.572Z,2.40
2018-06-03T10:13:09.575Z,2.92
2018-06-03T10:15:36.559Z,2.58
2018-06-03T10:18:03.057Z,3.13
2018-06-03T10:20:29.549Z,3.40
2018-06-03T10:22:56.061Z,3.33
2018-06-03T10:25:22.565Z,2.90
2018-06-03T10:27:49.012Z,2.50
2018-06-03T10:30:16.162Z,2.50
2018-06-03T10:32:42.681Z,2.92
2018-06-03T10:35:09.189Z,3.20
2018-06-03T10:37:35.649Z,2.80
2018-06-03T10:40:02.199Z,2.80
2018-06-03T10:42:29.487Z,3.40
2018-06-03T10:44:55.960Z,3.00
2018-06-03T10:47:22.547Z,3.07
2018-06-03T10:49:49.018Z,4.30
2018-06-03T10:52:16.012Z,6.87
2018-06-03T10:54:42.539Z,5.93
2018-06-03T10:57:09.685Z,4.72
2018-06-03T10:59:36.182Z,7.50
2018-06-03T11:02:02.625Z,8.87
2018-06-03T11:04:29.132Z,8.63
2018-06-03T11:06:55.595Z,5.13
2018-06-03T11:09:22.072Z,4.53
2018-06-03T11:11:48.570Z,4.20
2018-06-03T11:14:15.700Z,3.53
2018-06-03T11:16:42.211Z,3.43
2018-06-03T11:19:08.681Z,3.47
2018-06-03T11:21:35.173Z,5.30
2018-06-03T11:24:01.686Z,2.65
2018-06-03T11:26:28.235Z,2.50
2018-06-03T11:28:54.732Z,2.33
2018-06-03T11:31:21.269Z,2.30
2018-06-03T11:33:47.800Z,2.20
2018-06-03T11:36:14.309Z,3.00
2018-06-03T11:38:40.781Z,2.60
2018-06-03T11:41:07.277Z,2.43
2018-06-03T11:43:33.808Z,2.27
2018-06-03T11:46:00.352Z,2.77
2018-06-03T11:48:26.817Z,2.43
2018-06-03T11:50:53.423Z,2.25
2018-06-03T11:53:20.520Z,3.03
2018-06-03T11:55:47.027Z,2.80
2018-06-03T11:58:13.557Z,2.80
2018-06-03T12:00:40.104Z,3.70
2018-06-03T12:03:06.578Z,3.52
2018-06-03T12:05:33.092Z,3.10
2018-06-03T12:07:59.609Z,2.80
2018-06-03T12:10:26.066Z,2.53
2018-06-03T12:12:52.602Z,3.23
2018-06-03T12:15:19.119Z,2.27
2018-06-03T12:17:45.642Z,2.60
2018-06-03T12:20:12.096Z,2.40
2018-06-03T12:22:39.120Z,3.10
2018-06-03T12:25:05.604Z,3.00
2018-06-03T12:27:32.561Z,2.50
2018-06-03T12:29:59.022Z,1.90
2018-06-03T12:32:27.114Z,2.33
2018-06-03T12:34:53.570Z,2.42
2018-06-03T12:37:20.746Z,2.20
2018-06-03T12:39:47.200Z,2.50
2018-06-03T12:42:13.654Z,2.30
2018-06-03T12:44:40.097Z,2.00
2018-06-03T12:47:06.576Z,2.10
2018-06-03T12:49:33.024Z,2.23
2018-06-03T12:51:59.625Z,2.40
2018-06-03T12:54:26.111Z,3.00
2018-06-03T12:56:52.576Z,2.47
2018-06-03T12:59:19.092Z,2.37
2018-06-03T13:01:45.582Z,2.83
2018-06-03T13:04:12.063Z,2.50
2018-06-03T13:06:38.522Z,2.47
2018-06-03T13:09:05.051Z,2.47
2018-06-03T13:11:31.564Z,2.53
2018-06-03T13:13:58.088Z,2.47
2018-06-03T13:16:25.109Z,2.90
2018-06-03T13:18:51.691Z,3.13
2018-06-03T13:21:18.168Z,2.90
2018-06-03T13:23:44.795Z,2.77
2018-06-03T13:26:11.329Z,2.65
2018-06-03T13:28:37.861Z,3.53
2018-06-03T13:31:04.367Z,2.93
2018-06-03T13:33:30.834Z,2.25
2018-06-03T13:35:58.019Z,2.60
2018-06-03T13:38:24.541Z,2.70
2018-06-03T13:40:51.063Z,2.60
2018-06-03T13:43:17.631Z,2.62
2018-06-03T13:45:44.144Z,2.50
2018-06-03T13:48:12.834Z,2.33
2018-06-03T13:50:40.539Z,2.70
2018-06-03T13:53:07.020Z,2.83
2018-06-03T13:55:33.532Z,3.70
2018-06-03T13:57:59.992Z,2.67
2018-06-03T14:00:26.461Z,2.50
2018-06-03T14:02:54.299Z,2.40
2018-06-03T14:05:20.991Z,2.43
2018-06-03T14:07:47.501Z,3.30
2018-06-03T14:10:14.025Z,2.60
2018-06-03T14:12:41.504Z,2.98
2018-06-03T14:15:08.129Z,2.30
2018-06-03T14:17:34.605Z,2.83
2018-06-03T14:20:04.663Z,2.58
2018-06-03T14:22:31.266Z,2.73
2018-06-03T14:24:57.749Z,3.90
2018-06-03T14:27:24.182Z,2.80
2018-06-03T14:29:51.301Z,2.83
2018-06-03T14:32:17.999Z,2.53
2018-06-03T14:34:44.475Z,3.20
2018-06-03T14:37:11.423Z,2.72
2018-06-03T14:39:37.919Z,2.60
2018-06-03T14:42:05.064Z,2.58
2018-06-03T14:44:31.593Z,3.03
2018-06-03T14:46:58.056Z,2.67
2018-06-03T14:49:24.519Z,2.85
2018-06-03T14:51:50.996Z,2.33
2018-06-03T14:54:17.567Z,2.27
2018-06-03T14:56:44.039Z,3.33
2018-06-03T14:59:10.590Z,2.20
2018-06-03T15:01:37.097Z,3.03
2018-06-03T15:04:04.223Z,2.52
2018-06-03T15:06:30.707Z,2.80
2018-06-03T15:08:57.243Z,2.93
2018-06-03T15:11:23.750Z,2.50
2018-06-03T15:13:50.348Z,2.77
2018-06-03T15:16:16.882Z,3.30
2018-06-03T15:18:43.386Z,2.57
2018-06-03T15:21:09.867Z,2.40
2018-06-03T15:23:36.374Z,2.40
2018-06-03T15:26:03.002Z,2.70
2018-06-03T15:28:29.634Z,2.60
2018-06-03T15:30:56.134Z,2.50
2018-06-03T15:33:22.605Z,3.00
2018-06-03T15:35:49.112Z,2.60
2018-06-03T15:38:15.737Z,2.17
2018-06-03T15:40:42.271Z,2.50
2018-06-03T15:43:09.266Z,2.40
2018-06-03T15:45:36.475Z,2.73
2018-06-03T15:48:03.001Z,2.10
2018-06-03T15:50:29.516Z,2.90
2018-06-03T15:52:56.016Z,2.25
2018-06-03T15:55:22.546Z,2.52
2018-06-03T15:57:49.025Z,2.40
2018-06-03T16:00:15.655Z,1.80
2018-06-03T16:02:42.169Z,2.20
2018-06-03T16:05:08.739Z,1.90
2018-06-03T16:07:35.217Z,2.35
2018-06-03T16:10:01.711Z,2.30
2018-06-03T16:12:28.189Z,1.87
2018-06-03T16:14:54.731Z,1.80
2018-06-03T16:17:21.210Z,2.10
2018-06-03T16:19:47.703Z,2.22
2018-06-03T16:22:14.222Z,2.10
2018-06-03T16:24:40.725Z,2.53
2018-06-03T16:27:07.226Z,2.80
2018-06-03T16:29:33.705Z,2.67
2018-06-03T16:32:00.184Z,1.90
2018-06-03T16:34:27.177Z,2.17
2018-06-03T16:36:53.684Z,2.00
2018-06-03T16:39:20.838Z,2.23
2018-06-03T16:41:47.346Z,1.90
2018-06-03T16:44:13.830Z,1.97
2018-06-03T16:46:40.313Z,2.52
2018-06-03T16:49:18.941Z,2.17
2018-06-03T16:51:45.603Z,2.10
2018-06-03T16:54:12.235Z,2.20
2018-06-03T16:56:39.255Z,2.30
2018-06-03T16:59:06.285Z,2.70
2018-06-03T17:01:32.757Z,2.23
2018-06-03T17:03:59.741Z,2.45
2018-06-03T17:06:26.342Z,2.30
2018-06-03T17:08:52.847Z,2.47
2018-06-03T17:11:19.343Z,2.42
2018-06-03T17:13:45.911Z,2.22
2018-06-03T17:16:12.458Z,2.57
2018-06-03T17:18:38.983Z,2.40
2018-06-03T17:21:05.489Z,2.40
2018-06-03T17:23:31.994Z,2.40
2018-06-03T17:25:58.535Z,3.00
2018-06-03T17:28:25.032Z,2.40
2018-06-03T17:30:51.544Z,2.20
2018-06-03T17:33:18.718Z,2.33
2018-06-03T17:35:45.298Z,2.33
2018-06-03T17:38:11.779Z,2.47
2018-06-03T17:40:38.281Z,2.20
2018-06-03T17:43:04.751Z,2.47
2018-06-03T17:45:31.239Z,2.43
2018-06-03T17:47:57.831Z,2.30
2018-06-03T17:50:24.365Z,2.85
2018-06-03T17:52:50.860Z,2.43
2018-06-03T17:55:17.340Z,2.40
2018-06-03T17:57:43.844Z,2.30
2018-06-03T18:00:10.326Z,2.30
2018-06-03T18:02:36.819Z,2.20
2018-06-03T18:05:03.846Z,2.50
2018-06-03T18:07:30.304Z,2.50
2018-06-03T18:09:56.787Z,2.77
2018-06-03T18:12:23.387Z,2.90
2018-06-03T18:14:49.933Z,2.80
2018-06-03T18:17:16.426Z,3.17
2018-06-03T18:19:42.899Z,2.50
2018-06-03T18:22:10.073Z,2.30
2018-06-03T18:24:36.546Z,2.60
2018-06-03T18:27:03.010Z,2.37
2018-06-03T18:29:29.470Z,2.63
2018-06-03T18:31:56.074Z,2.90
2018-06-03T18:34:22.679Z,2.50
2018-06-03T18:36:49.272Z,2.45
2018-06-03T18:39:15.792Z,2.50
2018-06-03T18:41:42.228Z,2.60
2018-06-03T18:44:08.770Z,2.40
2018-06-03T18:46:35.225Z,2.80
2018-06-03T18:49:01.688Z,2.52
2018-06-03T18:51:28.179Z,2.40
2018-06-03T18:53:54.691Z,2.93
2018-06-03T18:56:21.160Z,2.97
2018-06-03T18:58:47.765Z,2.95
2018-06-03T19:01:14.294Z,2.77
2018-06-03T19:03:40.797Z,3.23
2018-06-03T19:06:07.320Z,3.12
2018-06-03T19:08:33.838Z,2.70
2018-06-03T19:11:00.396Z,2.43
2018-06-03T19:13:26.929Z,2.80
2018-06-03T19:15:53.536Z,2.47
2018-06-03T19:18:20.062Z,2.30
2018-06-03T19:20:46.576Z,2.73
2018-06-03T19:23:13.053Z,3.08
2018-06-03T19:25:40.112Z,2.67
2018-06-03T19:28:06.627Z,2.40
2018-06-03T19:30:33.135Z,2.50
2018-06-03T19:32:59.620Z,2.57
2018-06-03T19:35:26.096Z,2.67
2018-06-03T19:37:52.608Z,3.47
2018-06-03T19:40:19.085Z,2.77
2018-06-03T19:42:45.512Z,2.50
2018-06-03T19:45:11.923Z,2.73
2018-06-03T19:47:38.318Z,2.20
2018-06-03T19:50:04.748Z,2.55
2018-06-03T19:52:32.131Z,2.50
2018-06-03T19:54:58.591Z,2.10
2018-06-03T19:57:24.998Z,2.43
2018-06-03T19:59:51.442Z,2.55
2018-06-03T20:02:17.968Z,2.53
2018-06-03T20:04:44.547Z,2.57
2018-06-03T20:07:10.946Z,2.30
2018-06-03T20:09:37.347Z,2.67
2018-06-03T20:12:03.754Z,2.23
2018-06-03T20:14:30.170Z,2.50
2018-06-03T20:16:56.580Z,2.57
2018-06-03T20:19:22.990Z,2.77
2018-06-03T20:21:49.407Z,2.60
2018-06-03T20:24:15.869Z,2.77
2018-06-03T20:26:42.898Z,2.80
2018-06-03T20:29:09.366Z,2.90
2018-06-03T20:31:35.909Z,3.53
2018-06-03T20:34:02.358Z,2.70
2018-06-03T20:36:28.854Z,3.03
2018-06-03T20:38:55.354Z,2.70
2018-06-03T20:41:21.844Z,5.12
2018-06-03T20:43:48.363Z,3.27
2018-06-03T20:46:14.855Z,4.40
2018-06-03T20:48:41.387Z,2.80
2018-06-03T20:51:07.905Z,3.20
2018-06-03T20:53:34.427Z,2.85
2018-06-03T20:56:00.930Z,2.30
2018-06-03T20:58:27.429Z,3.07
2018-06-03T21:00:53.896Z,3.20
2018-06-03T21:03:20.408Z,3.97
2018-06-03T21:05:46.942Z,3.63
2018-06-03T21:08:13.488Z,2.92
2018-06-03T21:10:39.974Z,3.30
2018-06-03T21:13:06.451Z,3.17
2018-06-03T21:15:32.946Z,3.37
2018-06-03T21:17:59.431Z,3.40
2018-06-03T21:20:25.902Z,3.30
2018-06-03T21:22:52.399Z,3.53
2018-06-03T21:25:18.889Z,3.37
2018-06-03T21:27:45.371Z,2.83
2018-06-03T21:30:11.883Z,3.37
2018-06-03T21:32:38.362Z,3.13
2018-06-03T21:35:04.876Z,3.13
2018-06-03T21:37:31.397Z,3.00
2018-06-03T21:39:57.929Z,3.83
2018-06-03T21:42:24.433Z,3.37
2018-06-03T21:44:50.919Z,3.50
2018-06-03T21:47:17.473Z,3.00
2018-06-03T21:49:43.997Z,3.53
2018-06-03T21:52:11.015Z,3.00
2018-06-03T21:54:37.643Z,3.17
2018-06-03T21:57:04.152Z,3.30
2018-06-03T21:59:30.641Z,3.13
2018-06-03T22:01:57.141Z,4.60
2018-06-03T22:04:23.605Z,3.57
2018-06-03T22:06:50.105Z,2.70
2018-06-03T22:09:16.638Z,3.50
2018-06-03T22:11:43.113Z,2.90
2018-06-03T22:14:09.599Z,2.87
2018-06-03T22:16:36.083Z,2.77
2018-06-03T22:19:02.662Z,2.87
2018-06-03T22:21:29.157Z,2.70
2018-06-03T22:23:55.623Z,3.35
2018-06-03T22:26:22.094Z,3.50
2018-06-03T22:28:48.557Z,3.20
2018-06-03T22:31:15.035Z,3.07
2018-06-03T22:33:41.517Z,3.55
2018-06-03T22:36:08.005Z,3.67
2018-06-03T22:38:34.537Z,3.23
2018-06-03T22:41:01.021Z,2.87
2018-06-03T22:43:27.520Z,2.70
2018-06-03T22:45:54.016Z,2.90
2018-06-03T22:48:20.459Z,3.40
2018-06-03T22:50:46.947Z,3.50
2018-06-03T22:53:13.398Z,2.63
2018-06-03T22:55:39.879Z,3.08
2018-06-03T22:58:06.325Z,2.57
2018-06-03T23:00:33.314Z,3.53
2018-06-03T23:03:05.466Z,3.83
2018-06-03T23:05:31.915Z,3.30
2018-06-03T23:07:58.420Z,2.87
2018-06-03T23:10:25.036Z,2.85
2018-06-03T23:12:51.522Z,3.15
2018-06-03T23:15:18.031Z,3.20
2018-06-03T23:17:44.629Z,2.80
2018-06-03T23:20:11.601Z,3.25
2018-06-03T23:22:39.861Z,3.10
2018-06-03T23:25:06.575Z,3.23
2018-06-03T23:27:33.670Z,3.57
2018-06-03T23:30:00.340Z,3.10
2018-06-03T23:32:27.274Z,3.70
2018-06-03T23:34:54.287Z,3.23
2018-06-03T23:37:21.801Z,2.87
2018-06-03T23:39:48.722Z,3.67
2018-06-03T23:42:15.204Z,3.13
2018-06-03T23:44:41.834Z,2.95
2018-06-03T23:47:08.327Z,3.95
2018-06-03T23:49:34.885Z,3.50
2018-06-03T23:52:02.033Z,4.17
2018-06-03T23:54:28.508Z,3.47
2018-06-03T23:56:54.959Z,3.87
2018-06-03T23:59:22.079Z,3.30
